Holland, Ohio
Current Conditions -  °F | °C
As of 8:56 AM on Monday 26 Jan 2015 (Local Time) from KTOL Reporting Station
Broken Clouds Broken Clouds  
Wind Chill:   Ceiling: 1400
Heat Index: 10°   Visibility: 10mi
Dew Point:   Wind: 7mph
Humidity: 79%   Direction: 350°N
Pressure: 29.94"   Gusts: NA
Location:  41.62°N, 83.71°W
Report Text: KTOL 261356Z 35006KT 10SM BKN014 M12/M15 A2994 RMK AO2
Loading
Personal Weather Stations






























Interactive Weather Map New forecast layout! Learn more

10-Day Weather Forecast

Advertisements
Track Severe Weather on mobile